Time;durP1;ratioP1;P1;durP2;ratioP2;P2;SDS_P1;SDS_P2;PMS_P1;PMS_P2;Temp;Humidity;BMP_temperature;BMP_pressure;BME280_temperature;BME280_humidity;BME280_pressure;Samples;Min_cycle;Max_cycle;Signal;HPM_P1;HPM_P2
2023/03/01 00:02:01;;;;;;;1.92;1.83;;;;;;;-142.70;100.00;60390.16;4917086;29;20056;-81
2023/03/01 00:04:27;;;;;;;1.40;1.30;;;;;;;-142.70;100.00;60390.16;5294595;23;20010;-81
2023/03/01 00:06:53;;;;;;;1.95;1.80;;;;;;;-142.70;100.00;60390.16;4920266;29;20080;-82
2023/03/01 00:09:19;;;;;;;2.03;1.85;;;;;;;-142.70;100.00;60390.16;4916093;29;20051;-83
2023/03/01 00:11:45;;;;;;;3.50;1.60;;;;;;;-142.70;100.00;60390.16;4919014;29;20035;-82
2023/03/01 00:14:11;;;;;;;1.42;1.33;;;;;;;-142.70;100.00;60390.16;4919615;29;20043;-83
2023/03/01 00:16:39;;;;;;;1.77;1.67;;;;;;;-142.70;100.00;60390.16;4918869;29;20073;-83
2023/03/01 00:19:06;;;;;;;1.85;1.75;;;;;;;-142.70;100.00;60390.16;4920028;29;20060;-82
2023/03/01 00:21:33;;;;;;;2.03;1.92;;;;;;;-142.70;100.00;60390.16;5045929;23;20051;-80
2023/03/01 00:23:59;;;;;;;2.17;2.05;;;;;;;-142.70;100.00;60390.16;4929538;29;20084;-81
2023/03/01 00:26:25;;;;;;;1.83;1.73;;;;;;;-142.70;100.00;60390.16;5339651;23;20846;-79
2023/03/01 00:28:51;;;;;;;2.03;1.90;;;;;;;-142.70;100.00;60390.16;4921554;29;20056;-82
2023/03/01 00:31:23;;;;;;;1.98;1.88;;;;;;;-142.70;100.00;60390.16;4923016;29;20012;-81
2023/03/01 00:33:50;;;;;;;2.40;1.75;;;;;;;-142.70;100.00;60390.16;4919375;29;20045;-81
2023/03/01 00:36:16;;;;;;;1.60;1.50;;;;;;;-142.70;100.00;60390.16;4915079;29;20104;-81
2023/03/01 00:38:44;;;;;;;1.88;1.77;;;;;;;-142.70;100.00;60390.16;4952955;29;20035;-80
2023/03/01 00:41:12;;;;;;;1.70;1.60;;;;;;;-142.70;100.00;60390.16;4938484;29;20024;-83
2023/03/01 00:43:38;;;;;;;2.30;2.10;;;;;;;-142.70;100.00;60390.16;4931486;29;20048;-80
2023/03/01 00:46:05;;;;;;;1.88;1.77;;;;;;;-142.70;100.00;60390.16;4918683;29;20025;-79
2023/03/01 00:48:32;;;;;;;3.85;3.25;;;;;;;-142.70;100.00;60390.16;4917776;29;20112;-80
2023/03/01 00:51:03;;;;;;;6.70;4.07;;;;;;;-142.70;100.00;60390.16;4928700;29;20032;-82
2023/03/01 00:53:29;;;;;;;4.32;3.58;;;;;;;-142.70;100.00;60390.16;4931463;29;20042;-81
2023/03/01 00:55:57;;;;;;;2.90;2.70;;;;;;;-142.70;100.00;60390.16;4923697;29;20051;-80
2023/03/01 00:58:23;;;;;;;2.60;2.40;;;;;;;-142.70;100.00;60390.16;4895101;29;20043;-80
2023/03/01 01:00:48;;;;;;;2.42;2.22;;;;;;;-142.70;100.00;60390.16;4946527;29;20040;-80
2023/03/01 01:03:14;;;;;;;1.85;1.75;;;;;;;-142.70;100.00;60390.16;4937350;29;20024;-81
2023/03/01 01:05:40;;;;;;;1.80;1.70;;;;;;;-142.70;100.00;60390.16;4935308;29;20056;-80
2023/03/01 01:08:05;;;;;;;1.80;1.70;;;;;;;-142.70;100.00;60390.16;4933904;29;20029;-81
2023/03/01 01:10:34;;;;;;;1.60;1.50;;;;;;;-142.70;100.00;60390.16;5084830;23;20043;-82
2023/03/01 01:12:59;;;;;;;1.42;1.33;;;;;;;-142.70;100.00;60390.16;4983186;28;20011;-81
2023/03/01 01:15:25;;;;;;;1.45;1.35;;;;;;;-142.70;100.00;60390.16;4997787;28;20011;-82
2023/03/01 01:17:50;;;;;;;1.30;1.20;;;;;;;-142.70;100.00;60390.16;4977231;28;20038;-81
2023/03/01 01:20:17;;;;;;;1.13;1.02;;;;;;;-142.70;100.00;60390.16;4949602;29;20038;-78
2023/03/01 01:22:43;;;;;;;0.85;0.85;;;;;;;-142.70;100.00;60390.16;4981318;28;20038;-81
2023/03/01 01:25:08;;;;;;;1.10;1.10;;;;;;;-142.70;100.00;60390.16;4975564;28;20031;-80
2023/03/01 01:27:34;;;;;;;0.90;0.90;;;;;;;-142.70;100.00;60390.16;4973518;28;20050;-80
2023/03/01 01:29:59;;;;;;;0.88;0.88;;;;;;;-142.70;100.00;60390.16;4974488;28;20058;-81
2023/03/01 01:32:25;;;;;;;0.85;0.85;;;;;;;-142.70;100.00;60390.16;4988444;28;20028;-80
2023/03/01 01:34:50;;;;;;;1.30;1.20;;;;;;;-142.70;100.00;60390.16;4954722;28;20027;-80
2023/03/01 01:37:15;;;;;;;2.35;2.25;;;;;;;-142.70;100.00;60390.16;4993136;28;20094;-81
2023/03/01 01:39:41;;;;;;;2.03;1.92;;;;;;;-142.70;100.00;60390.16;4983274;28;20057;-80
2023/03/01 01:42:15;;;;;;;3.42;3.13;;;;;;;-142.70;100.00;60390.16;4957226;28;20019;-80
2023/03/01 01:44:42;;;;;;;3.17;2.97;;;;;;;-142.70;100.00;60390.16;4959929;29;20019;-80
2023/03/01 01:47:17;;;;;;;3.28;3.00;;;;;;;-142.70;100.00;60390.16;4965190;28;20041;-80
2023/03/01 01:49:54;;;;;;;2.90;2.70;;;;;;;-142.70;100.00;60390.16;4992486;28;20050;-80
2023/03/01 01:52:26;;;;;;;2.65;2.45;;;;;;;-142.70;100.00;60390.16;4955635;29;20023;-81
2023/03/01 01:54:56;;;;;;;2.90;2.70;;;;;;;-142.70;100.00;60390.16;4968570;28;20027;-81
2023/03/01 01:57:33;;;;;;;2.70;2.50;;;;;;;-142.70;100.00;60390.16;4978828;28;20046;-80
2023/03/01 02:00:00;;;;;;;2.28;2.03;;;;;;;-142.70;100.00;60390.16;4965762;29;20011;-80
2023/03/01 02:02:26;;;;;;;2.55;2.35;;;;;;;-142.70;100.00;60390.16;4974413;29;20035;-80
2023/03/01 02:04:58;;;;;;;1.55;1.45;;;;;;;-142.70;100.00;60390.16;4967477;28;20045;-79
2023/03/01 02:07:24;;;;;;;1.98;1.88;;;;;;;-142.70;100.00;60390.16;4977149;28;20018;-82
2023/03/01 02:09:52;;;;;;;1.80;1.70;;;;;;;-142.70;100.00;60390.16;4943426;29;20040;-82
2023/03/01 02:12:19;;;;;;;1.80;1.70;;;;;;;-142.70;100.00;60390.16;4943456;29;20015;-83
2023/03/01 02:14:45;;;;;;;1.58;1.05;;;;;;;-142.70;100.00;60390.16;4949154;29;20026;-81
2023/03/01 02:17:11;;;;;;;1.15;1.02;;;;;;;-142.70;100.00;60390.16;4959114;29;20027;-82
2023/03/01 02:19:37;;;;;;;1.30;1.20;;;;;;;-142.70;100.00;60390.16;4946034;29;20031;-82
2023/03/01 02:22:11;;;;;;;1.55;1.20;;;;;;;-142.70;100.00;60390.16;4979667;29;20042;-81
2023/03/01 02:25:05;;;;;;;0.82;0.82;;;;;;;-142.70;100.00;60390.16;4962543;29;20115;-80
2023/03/01 02:27:38;;;;;;;1.48;1.27;;;;;;;-142.70;100.00;60390.16;4964881;29;20050;-79
2023/03/01 02:30:04;;;;;;;1.20;1.10;;;;;;;-142.70;100.00;60390.16;4934848;29;20011;-81
2023/03/01 02:32:30;;;;;;;2.42;0.90;;;;;;;-142.70;100.00;60390.16;4964775;29;20071;-81
2023/03/01 02:34:56;;;;;;;1.10;1.05;;;;;;;-142.70;100.00;60390.16;4955624;29;20031;-81
2023/03/01 02:37:24;;;;;;;2.15;1.40;;;;;;;-142.70;100.00;60390.16;4939175;29;20043;-80
2023/03/01 02:39:58;;;;;;;1.52;1.42;;;;;;;-142.70;100.00;60390.16;4953491;29;20050;-79
2023/03/01 02:42:28;;;;;;;1.65;1.55;;;;;;;-142.70;100.00;60390.16;4949994;29;20027;-80
2023/03/01 02:44:53;;;;;;;1.60;1.50;;;;;;;-142.70;100.00;60390.16;4940642;29;20031;-81
2023/03/01 02:47:19;;;;;;;1.60;1.50;;;;;;;-142.70;100.00;60390.16;4957092;29;20039;-80
2023/03/01 02:49:44;;;;;;;1.60;1.50;;;;;;;-142.70;100.00;60390.16;4956268;29;20047;-81
2023/03/01 02:52:35;;;;;;;3.00;2.75;;;;;;;-142.70;100.00;60390.16;4959154;29;20026;-81
2023/03/01 02:55:07;;;;;;;3.72;2.78;;;;;;;-142.70;100.00;60390.16;4961206;29;20061;-81
2023/03/01 02:57:34;;;;;;;3.40;3.10;;;;;;;-142.70;100.00;60390.16;4964881;29;20043;-81
2023/03/01 03:00:06;;;;;;;3.25;2.92;;;;;;;-142.70;100.00;60390.16;4975468;29;20015;-81
2023/03/01 03:02:35;;;;;;;4.88;4.47;;;;;;;-142.70;100.00;60390.16;4961146;29;20015;-82
2023/03/01 03:05:13;;;;;;;3.63;2.97;;;;;;;-142.70;100.00;60390.16;4977799;29;20086;-82
2023/03/01 03:07:43;;;;;;;2.47;2.28;;;;;;;-142.70;100.00;60390.16;4978092;29;20039;-82
2023/03/01 03:10:23;;;;;;;3.08;2.78;;;;;;;-142.70;100.00;60390.16;4967183;29;20051;-81
2023/03/01 03:12:51;;;;;;;2.75;2.55;;;;;;;-142.70;100.00;60390.16;4956123;29;20032;-81
2023/03/01 03:15:17;;;;;;;3.38;3.08;;;;;;;-142.70;100.00;60390.16;4940035;29;20024;-81
2023/03/01 03:17:43;;;;;;;4.75;3.10;;;;;;;-142.70;100.00;60390.16;4955969;29;20046;-81
2023/03/01 03:20:11;;;;;;;4.32;3.83;;;;;;;-142.70;100.00;60390.16;4976271;29;20387;-81
2023/03/01 03:22:40;;;;;;;4.82;3.40;;;;;;;-142.70;100.00;60390.16;4958673;29;20035;-80
2023/03/01 03:25:10;;;;;;;3.72;3.45;;;;;;;-142.70;100.00;60390.16;4973092;29;20031;-80
2023/03/01 03:27:37;;;;;;;6.25;4.18;;;;;;;-142.70;100.00;60390.16;4959273;29;20019;-80
2023/03/01 03:30:08;;;;;;;3.53;3.22;;;;;;;-142.70;100.00;60390.16;4975455;29;20031;-81
2023/03/01 03:32:35;;;;;;;3.75;3.45;;;;;;;-142.70;100.00;60390.16;4955938;29;20039;-80
2023/03/01 03:35:00;;;;;;;4.00;3.33;;;;;;;-142.70;100.00;60390.16;4974003;29;20051;-81
2023/03/01 03:40:15;;;;;;;4.55;3.58;;;;;;;-142.70;100.00;60390.16;4976844;29;20038;-81
2023/03/01 03:42:40;;;;;;;3.65;3.35;;;;;;;-142.70;100.00;60390.16;4967781;29;20028;-81
2023/03/01 03:45:06;;;;;;;4.28;3.55;;;;;;;-142.70;100.00;60390.16;4958102;29;20016;-81
2023/03/01 03:50:17;;;;;;;3.67;3.17;;;;;;;-142.70;100.00;60390.16;4957869;29;20067;-81
2023/03/01 03:52:43;;;;;;;2.95;2.75;;;;;;;-142.70;100.00;60390.16;4958079;29;20000;-81
2023/03/01 03:55:10;;;;;;;2.65;2.40;;;;;;;-142.70;100.00;60390.16;4948253;29;20009;-81
2023/03/01 04:00:24;;;;;;;2.85;2.65;;;;;;;-142.70;100.00;60390.16;4955217;29;20079;-82
2023/03/01 04:02:50;;;;;;;3.00;2.67;;;;;;;-142.70;100.00;60390.16;4959251;29;20036;-82
2023/03/01 04:05:18;;;;;;;2.58;2.38;;;;;;;-142.70;100.00;60390.16;4958367;29;20060;-80
2023/03/01 04:07:44;;;;;;;4.25;3.83;;;;;;;-142.70;100.00;60390.16;4957812;29;20092;-81
2023/03/01 04:10:12;;;;;;;3.45;3.13;;;;;;;-142.70;100.00;60390.16;4942748;29;20043;-82
2023/03/01 04:12:38;;;;;;;2.88;2.65;;;;;;;-142.70;100.00;60390.16;4968322;29;20066;-80
2023/03/01 04:15:12;;;;;;;2.90;2.70;;;;;;;-142.70;100.00;60390.16;4977872;29;20087;-81
2023/03/01 04:17:45;;;;;;;3.22;2.92;;;;;;;-142.70;100.00;60390.16;4976067;29;20159;-81
2023/03/01 04:20:24;;;;;;;3.35;3.05;;;;;;;-142.70;100.00;60390.16;4972765;29;20022;-82
2023/03/01 04:23:10;;;;;;;3.70;3.22;;;;;;;-142.70;100.00;60390.16;4967288;29;20031;-81
2023/03/01 04:25:40;;;;;;;3.03;2.83;;;;;;;-142.70;100.00;60390.16;4975714;29;20012;-81
2023/03/01 04:28:05;;;;;;;3.60;3.30;;;;;;;-142.70;100.00;60390.16;4964173;29;20027;-81
2023/03/01 04:30:35;;;;;;;4.88;3.28;;;;;;;-142.70;100.00;60390.16;4961413;29;20031;-81
2023/03/01 04:33:03;;;;;;;3.15;2.85;;;;;;;-142.70;100.00;60390.16;4973508;29;20023;-81
2023/03/01 04:35:29;;;;;;;2.22;1.83;;;;;;;-142.70;100.00;60390.16;4936114;29;20055;-81
2023/03/01 04:37:54;;;;;;;2.63;2.03;;;;;;;-142.70;100.00;60390.16;4966501;29;20031;-81
2023/03/01 04:40:21;;;;;;;3.58;2.42;;;;;;;-142.70;100.00;60390.16;4958559;29;20036;-81
2023/03/01 04:42:47;;;;;;;2.28;2.08;;;;;;;-142.70;100.00;60390.16;4961604;29;20032;-82
2023/03/01 04:45:12;;;;;;;2.33;2.22;;;;;;;-142.70;100.00;60390.16;4956890;29;20024;-82
2023/03/01 04:47:40;;;;;;;2.90;2.55;;;;;;;-142.70;100.00;60390.16;4955617;29;20016;-81
2023/03/01 04:50:06;;;;;;;2.10;1.90;;;;;;;-142.70;100.00;60390.16;4951421;29;20119;-82
2023/03/01 04:52:31;;;;;;;2.63;2.22;;;;;;;-142.70;100.00;60390.16;4947230;29;20482;-81
2023/03/01 04:54:57;;;;;;;2.25;1.80;;;;;;;-142.70;100.00;60390.16;4958480;29;20043;-83
2023/03/01 04:57:22;;;;;;;2.58;1.98;;;;;;;-142.70;100.00;60390.16;4970843;29;20044;-82
2023/03/01 04:59:47;;;;;;;2.13;1.40;;;;;;;-142.70;100.00;60390.16;4959027;29;20063;-83
2023/03/01 05:02:13;;;;;;;1.30;1.20;;;;;;;-142.70;100.00;60390.16;4958930;29;20051;-83
2023/03/01 05:04:38;;;;;;;1.50;1.40;;;;;;;-142.70;100.00;60390.16;4962325;29;20035;-82
2023/03/01 05:07:04;;;;;;;2.05;1.52;;;;;;;-142.70;100.00;60390.16;4964993;29;20011;-83
2023/03/01 05:09:29;;;;;;;1.85;1.40;;;;;;;-142.70;100.00;60390.16;4958747;29;20012;-81
2023/03/01 05:11:54;;;;;;;1.20;1.10;;;;;;;-142.70;100.00;60390.16;4956367;29;20063;-80
2023/03/01 05:14:20;;;;;;;1.50;1.40;;;;;;;-142.70;100.00;60390.16;4958831;29;20091;-80
2023/03/01 05:16:45;;;;;;;2.05;1.40;;;;;;;-142.70;100.00;60390.16;4948236;29;20039;-81
2023/03/01 05:19:14;;;;;;;1.20;1.10;;;;;;;-142.70;100.00;60390.16;4949150;29;20023;-80
2023/03/01 05:22:01;;;;;;;1.42;1.20;;;;;;;-142.70;100.00;60390.16;4935575;29;20450;-80
2023/03/01 05:24:26;;;;;;;2.17;1.55;;;;;;;-142.70;100.00;60390.16;4949995;29;20597;-80
2023/03/01 05:26:52;;;;;;;1.42;1.30;;;;;;;-142.70;100.00;60390.16;4940496;29;20039;-80
2023/03/01 05:29:24;;;;;;;1.48;1.20;;;;;;;-142.70;100.00;60390.16;4954908;29;20023;-81
2023/03/01 05:31:52;;;;;;;1.23;1.00;;;;;;;-142.70;100.00;60390.16;4961514;29;20032;-80
2023/03/01 05:34:17;;;;;;;1.10;1.00;;;;;;;-142.70;100.00;60390.16;4964859;29;20039;-81
2023/03/01 05:36:42;;;;;;;0.80;0.80;;;;;;;-142.70;100.00;60390.16;4961697;29;20024;-81
2023/03/01 05:39:08;;;;;;;2.20;1.13;;;;;;;-142.70;100.00;60390.16;4962153;29;20119;-82
2023/03/01 05:41:33;;;;;;;1.17;1.10;;;;;;;-142.70;100.00;60390.16;4964130;29;20022;-82
2023/03/01 05:43:59;;;;;;;0.80;0.80;;;;;;;-142.70;100.00;60390.16;4959496;29;20055;-81
2023/03/01 05:46:24;;;;;;;0.82;0.80;;;;;;;-142.70;100.00;60390.16;4973704;28;20027;-80
2023/03/01 05:48:49;;;;;;;0.65;0.65;;;;;;;-142.70;100.00;60390.16;4962812;29;20095;-81
2023/03/01 05:51:15;;;;;;;1.30;1.02;;;;;;;-142.70;100.00;60390.16;4967624;29;20092;-82
2023/03/01 05:53:40;;;;;;;1.02;0.73;;;;;;;-142.70;100.00;60390.16;4981029;29;20024;-81
2023/03/01 05:56:06;;;;;;;1.05;0.70;;;;;;;-142.70;100.00;60390.16;4981862;29;20075;-82
2023/03/01 05:58:31;;;;;;;1.50;0.98;;;;;;;-142.70;100.00;60390.16;4965503;29;20090;-83
2023/03/01 06:00:58;;;;;;;1.25;1.08;;;;;;;-142.70;100.00;60390.16;5069725;23;20050;-83
2023/03/01 06:03:23;;;;;;;2.55;1.30;;;;;;;-142.70;100.00;60390.16;4966416;29;20033;-82
2023/03/01 06:05:49;;;;;;;1.88;1.38;;;;;;;-142.70;100.00;60390.16;4989225;28;20026;-82
2023/03/01 06:08:15;;;;;;;1.35;1.25;;;;;;;-142.70;100.00;60390.16;4977749;28;20007;-81
2023/03/01 06:10:40;;;;;;;1.65;1.50;;;;;;;-142.70;100.00;60390.16;4960524;29;20493;-80
2023/03/01 06:13:06;;;;;;;1.60;1.20;;;;;;;-142.70;100.00;60390.16;4968566;29;20023;-80
2023/03/01 06:15:32;;;;;;;1.70;1.60;;;;;;;-142.70;100.00;60390.16;4970625;29;20042;-81
2023/03/01 06:17:57;;;;;;;1.42;1.30;;;;;;;-142.70;100.00;60390.16;4966366;29;20027;-81
2023/03/01 06:20:25;;;;;;;3.75;1.20;;;;;;;-142.70;100.00;60390.16;4974712;28;20020;-81
2023/03/01 06:22:51;;;;;;;2.05;1.15;;;;;;;-142.70;100.00;60390.16;4970951;29;20117;-81
2023/03/01 06:25:20;;;;;;;1.92;1.48;;;;;;;-142.70;100.00;60390.16;4939243;29;20513;-83
2023/03/01 06:27:46;;;;;;;1.92;1.45;;;;;;;-142.70;100.00;60390.16;4956023;29;20028;-81
2023/03/01 06:30:13;;;;;;;2.60;1.08;;;;;;;-142.70;100.00;60390.16;4967809;28;20043;-80
2023/03/01 06:32:41;;;;;;;1.30;1.10;;;;;;;-142.70;100.00;60390.16;4966541;29;20176;-81
2023/03/01 06:35:08;;;;;;;1.10;1.00;;;;;;;-142.70;100.00;60390.16;4965323;29;20392;-81
2023/03/01 06:37:35;;;;;;;1.55;1.15;;;;;;;-142.70;100.00;60390.16;4970756;29;20065;-81
2023/03/01 06:40:04;;;;;;;1.67;1.20;;;;;;;-142.70;100.00;60390.16;4967475;28;20090;-81
2023/03/01 06:42:30;;;;;;;1.30;1.20;;;;;;;-142.70;100.00;60390.16;4993598;28;20027;-81
2023/03/01 06:44:55;;;;;;;1.20;1.02;;;;;;;-142.70;100.00;60390.16;4983357;28;20035;-82
2023/03/01 06:47:21;;;;;;;1.60;1.25;;;;;;;-142.70;100.00;60390.16;4969011;29;20023;-80
2023/03/01 06:49:46;;;;;;;0.80;0.80;;;;;;;-142.70;100.00;60390.16;4960232;29;20072;-81
2023/03/01 06:52:12;;;;;;;0.63;0.63;;;;;;;-142.70;100.00;60390.16;4963877;29;20031;-82
2023/03/01 06:54:38;;;;;;;0.68;0.68;;;;;;;-142.70;100.00;60390.16;4967911;29;20034;-81
2023/03/01 06:57:03;;;;;;;0.93;0.70;;;;;;;-142.70;100.00;60390.16;4961954;28;20024;-81
2023/03/01 06:59:29;;;;;;;1.10;1.00;;;;;;;-142.70;100.00;60390.16;4969040;29;20153;-79
2023/03/01 07:01:55;;;;;;;0.70;0.50;;;;;;;-142.70;100.00;60390.16;4946792;29;20062;-81
2023/03/01 07:04:21;;;;;;;0.68;0.65;;;;;;;-142.70;100.00;60390.16;4962807;29;20046;-82
2023/03/01 07:06:54;;;;;;;0.90;0.50;;;;;;;-142.70;100.00;60390.16;4965907;28;20060;-82
2023/03/01 07:09:21;;;;;;;0.70;0.70;;;;;;;-142.70;100.00;60390.16;4963975;29;20031;-81
2023/03/01 07:11:47;;;;;;;0.40;0.40;;;;;;;-142.70;100.00;60390.16;4965291;29;20031;-79
2023/03/01 07:14:12;;;;;;;0.70;0.70;;;;;;;-142.70;100.00;60390.16;4945630;29;20109;-79
2023/03/01 07:16:38;;;;;;;0.75;0.75;;;;;;;-142.70;100.00;60390.16;4953595;29;20063;-84
2023/03/01 07:19:05;;;;;;;0.80;0.52;;;;;;;-142.70;100.00;60390.16;4979253;29;20011;-83
2023/03/01 07:21:31;;;;;;;0.60;0.60;;;;;;;-142.70;100.00;60390.16;4972773;29;20035;-81
2023/03/01 07:23:56;;;;;;;2.88;0.90;;;;;;;-142.70;100.00;60390.16;4974977;29;20030;-84
2023/03/01 07:26:22;;;;;;;0.65;0.60;;;;;;;-142.70;100.00;60390.16;4987913;28;20042;-81
2023/03/01 07:28:48;;;;;;;1.70;0.60;;;;;;;-142.70;100.00;60390.16;4969266;28;20079;-83
2023/03/01 07:31:14;;;;;;;2.67;0.93;;;;;;;-142.70;100.00;60390.16;4960460;29;20012;-83
2023/03/01 07:33:39;;;;;;;1.75;0.80;;;;;;;-142.70;100.00;60390.16;4959377;29;20034;-84
2023/03/01 07:36:06;;;;;;;0.52;0.50;;;;;;;-142.70;100.00;60390.16;4959686;29;20036;-84
2023/03/01 07:38:32;;;;;;;0.82;0.60;;;;;;;-142.70;100.00;60390.16;4962820;29;20011;-85
2023/03/01 07:41:02;;;;;;;4.10;0.68;;;;;;;-142.70;100.00;60390.16;4979666;29;20046;-85
2023/03/01 07:43:31;;;;;;;1.05;0.50;;;;;;;-142.70;100.00;60390.16;4980059;29;20079;-85
2023/03/01 07:46:00;;;;;;;0.55;0.50;;;;;;;-142.70;100.00;60390.16;5114685;23;20118;-86
2023/03/01 07:48:26;;;;;;;;;;;;;;;-142.70;100.00;60390.16;4947334;29;20127;-85
2023/03/01 07:50:52;;;;;;;0.80;0.40;;;;;;;-142.70;100.00;60390.16;4954999;29;19918;-85
2023/03/01 07:53:17;;;;;;;0.47;0.47;;;;;;;-142.70;100.00;60390.16;4962088;29;20039;-85
2023/03/01 07:55:43;;;;;;;0.63;0.50;;;;;;;-142.70;100.00;60390.16;4978636;28;20035;-85
2023/03/01 07:58:09;;;;;;;0.50;0.35;;;;;;;-142.70;100.00;60390.16;5097718;23;20042;-84
2023/03/01 08:00:34;;;;;;;1.40;0.73;;;;;;;-142.70;100.00;60390.16;5130963;23;20062;-85
2023/03/01 08:03:01;;;;;;;1.52;0.75;;;;;;;-142.70;100.00;60390.16;4988531;28;20027;-85
2023/03/01 08:05:28;;;;;;;0.77;0.52;;;;;;;-142.70;100.00;60390.16;4973392;28;20034;-85
2023/03/01 08:10:28;;;;;;;1.05;0.95;;;;;;;-142.70;100.00;60390.16;5178402;23;20062;-85
2023/03/01 08:12:54;;;;;;;1.13;1.02;;;;;;;-142.70;100.00;60390.16;4981691;28;20058;-84
2023/03/01 08:17:55;;;;;;;1.25;1.08;;;;;;;-142.70;100.00;60390.16;4795472;26;20054;-85
2023/03/01 08:25:25;;;;;;;1.40;1.00;;;;;;;-142.70;100.00;60390.16;5156323;23;20243;-79
2023/03/01 08:27:50;;;;;;;3.70;1.25;;;;;;;-142.70;100.00;60390.16;4958925;28;20130;-80
2023/03/01 08:30:20;;;;;;;1.05;0.70;;;;;;;-142.70;100.00;60390.16;4955121;28;20043;-80
2023/03/01 08:32:45;;;;;;;0.90;0.90;;;;;;;-142.70;100.00;60390.16;4966373;28;20066;-81
2023/03/01 08:35:14;;;;;;;0.63;0.63;;;;;;;-142.70;100.00;60390.16;4951678;28;20513;-80
2023/03/01 08:37:43;;;;;;;1.02;0.77;;;;;;;-142.70;100.00;60390.16;4959882;28;20039;-81
2023/03/01 08:40:09;;;;;;;0.40;0.30;;;;;;;-142.70;100.00;60390.16;4981084;28;20039;-80
2023/03/01 08:42:36;;;;;;;0.52;0.28;;;;;;;-142.70;100.00;60390.16;4985989;28;20094;-80
2023/03/01 08:45:02;;;;;;;0.30;0.20;;;;;;;-142.70;100.00;60390.16;4953018;29;20038;-82
2023/03/01 08:47:28;;;;;;;0.30;0.20;;;;;;;-142.70;100.00;60390.16;4976448;28;20065;-82
2023/03/01 08:49:53;;;;;;;0.50;0.20;;;;;;;-142.70;100.00;60390.16;4978798;28;20024;-81
2023/03/01 08:52:20;;;;;;;0.10;0.10;;;;;;;-142.70;100.00;60390.16;4973372;28;20045;-80
2023/03/01 08:54:47;;;;;;;0.80;0.70;;;;;;;-142.70;100.00;60390.16;4949152;28;20039;-80
2023/03/01 08:57:13;;;;;;;0.30;0.30;;;;;;;-142.70;100.00;60390.16;4946121;28;20061;-81
2023/03/01 08:59:39;;;;;;;1.10;0.75;;;;;;;-142.70;100.00;60390.16;4965891;28;20019;-81
2023/03/01 09:02:08;;;;;;;0.10;0.10;;;;;;;-142.70;100.00;60390.16;4966356;28;20066;-81
2023/03/01 09:04:33;;;;;;;0.10;0.10;;;;;;;-142.70;100.00;60390.16;4959785;28;20118;-82
2023/03/01 09:06:59;;;;;;;0.75;0.25;;;;;;;-142.70;100.00;60390.16;4971798;28;20020;-82
2023/03/01 09:09:25;;;;;;;0.32;0.30;;;;;;;-142.70;100.00;60390.16;4956470;29;20043;-80
2023/03/01 09:11:51;;;;;;;0.38;0.20;;;;;;;-142.70;100.00;60390.16;4972196;29;20035;-80
2023/03/01 09:14:16;;;;;;;0.13;0.13;;;;;;;-142.70;100.00;60390.16;4974288;29;20532;-80
2023/03/01 09:16:42;;;;;;;2.63;0.32;;;;;;;-142.70;100.00;60390.16;4967440;28;20032;-81
2023/03/01 09:19:08;;;;;;;1.27;1.10;;;;;;;-142.70;100.00;60390.16;4942108;29;20027;-82
2023/03/01 09:21:33;;;;;;;1.23;1.13;;;;;;;-142.70;100.00;60390.16;4965056;28;20035;-80
2023/03/01 09:23:59;;;;;;;0.47;0.38;;;;;;;-142.70;100.00;60390.16;4943741;29;20024;-81
2023/03/01 09:26:24;;;;;;;0.55;0.30;;;;;;;-142.70;100.00;60390.16;4975773;29;20046;-81
2023/03/01 09:28:52;;;;;;;0.98;0.90;;;;;;;-142.70;100.00;60390.16;4976332;28;20151;-82
2023/03/01 09:31:20;;;;;;;0.70;0.70;;;;;;;-142.70;100.00;60390.16;4980950;29;20038;-83
2023/03/01 09:33:47;;;;;;;1.55;0.98;;;;;;;-142.70;100.00;60390.16;4959417;29;20436;-83
2023/03/01 09:36:16;;;;;;;1.50;1.40;;;;;;;-142.70;100.00;60390.16;4960990;29;20058;-83
2023/03/01 09:38:41;;;;;;;0.65;0.65;;;;;;;-142.70;100.00;60390.16;4957856;29;20060;-82
2023/03/01 09:41:28;;;;;;;1.00;0.30;;;;;;;-142.70;100.00;60390.16;4973750;29;20091;-81
2023/03/01 09:43:57;;;;;;;0.10;0.10;;;;;;;-142.70;100.00;60390.16;4976086;29;20035;-81
2023/03/01 09:46:24;;;;;;;0.10;0.10;;;;;;;-142.70;100.00;60390.16;4972302;28;20070;-82
2023/03/01 09:49:01;;;;;;;0.00;0.00;;;;;;;-142.70;100.00;60390.16;4954544;29;20032;-81
2023/03/01 09:51:34;;;;;;;0.00;0.00;;;;;;;-142.70;100.00;60390.16;4956630;29;20031;-80
2023/03/01 09:54:05;;;;;;;0.20;0.10;;;;;;;-142.70;100.00;60390.16;4945677;29;20027;-81
2023/03/01 09:56:38;;;;;;;0.17;0.17;;;;;;;-142.70;100.00;60390.16;4953390;29;20018;-81
2023/03/01 09:59:09;;;;;;;0.08;0.03;;;;;;;-142.70;100.00;60390.16;4946985;28;20090;-80
2023/03/01 10:01:52;;;;;;;0.10;0.10;;;;;;;-142.70;100.00;60390.16;4954903;29;20037;-81
2023/03/01 10:04:36;;;;;;;0.30;0.13;;;;;;;-142.70;100.00;60390.16;4961119;29;20034;-79
2023/03/01 10:07:11;;;;;;;0.03;0.03;;;;;;;-142.70;100.00;60390.16;4959469;29;20038;-81
2023/03/01 10:09:41;;;;;;;0.30;0.10;;;;;;;-142.70;100.00;60390.16;4960079;29;20127;-82
2023/03/01 10:12:19;;;;;;;0.10;0.10;;;;;;;-142.70;100.00;60390.16;4946662;29;20027;-76
2023/03/01 10:15:10;;;;;;;1.23;0.10;;;;;;;-142.70;100.00;60390.16;4944569;29;20059;-81
2023/03/01 10:17:48;;;;;;;0.15;0.15;;;;;;;-142.70;100.00;60390.16;4946551;29;20039;-82
2023/03/01 10:20:17;;;;;;;0.20;0.10;;;;;;;-142.70;100.00;60390.16;4966441;28;20000;-83
2023/03/01 10:22:46;;;;;;;0.10;0.05;;;;;;;-142.70;100.00;60390.16;4974936;29;20015;-82
2023/03/01 10:25:14;;;;;;;0.10;0.10;;;;;;;-142.70;100.00;60390.16;4958888;29;20026;-82
2023/03/01 10:28:01;;;;;;;0.10;0.10;;;;;;;-142.70;100.00;60390.16;4971339;29;20046;-83
2023/03/01 10:30:39;;;;;;;0.10;0.10;;;;;;;-142.70;100.00;60390.16;4954306;29;20053;-81
2023/03/01 10:33:18;;;;;;;0.20;0.20;;;;;;;-142.70;100.00;60390.16;4962798;29;20026;-84
2023/03/01 10:35:44;;;;;;;0.10;0.10;;;;;;;-142.70;100.00;60390.16;4956526;29;20381;-83
2023/03/01 10:38:11;;;;;;;0.35;0.30;;;;;;;-142.70;100.00;60390.16;4957934;29;20019;-81
2023/03/01 10:41:06;;;;;;;0.50;0.20;;;;;;;-142.70;100.00;60390.16;4957485;29;20033;-82
2023/03/01 10:43:40;;;;;;;0.40;0.20;;;;;;;-142.70;100.00;60390.16;4977288;29;20050;-83
2023/03/01 10:46:26;;;;;;;0.47;0.30;;;;;;;-142.70;100.00;60390.16;4973700;29;20418;-82
2023/03/01 10:49:11;;;;;;;0.35;0.20;;;;;;;-142.70;100.00;60390.16;4958827;29;20033;-81
2023/03/01 10:51:44;;;;;;;0.45;0.40;;;;;;;-142.70;100.00;60390.16;4973159;29;20038;-82
2023/03/01 10:54:23;;;;;;;2.75;1.38;;;;;;;-142.70;100.00;60390.16;4955591;29;20118;-82
2023/03/01 10:57:09;;;;;;;0.80;0.52;;;;;;;-142.70;100.00;60390.16;4954940;29;20083;-81
2023/03/01 10:59:36;;;;;;;0.65;0.30;;;;;;;-142.70;100.00;60390.16;4954031;29;20039;-81
2023/03/01 11:02:29;;;;;;;2.95;0.35;;;;;;;-142.70;100.00;60390.16;4971510;28;20020;-81
2023/03/01 11:05:29;;;;;;;1.45;0.20;;;;;;;-142.70;100.00;60390.16;4956221;29;20034;-82
2023/03/01 11:07:58;;;;;;;0.75;0.22;;;;;;;-142.70;100.00;60390.16;4957371;29;20011;-81
2023/03/01 11:10:27;;;;;;;0.30;0.30;;;;;;;-142.70;100.00;60390.16;4959203;29;20011;-82
2023/03/01 11:12:53;;;;;;;0.45;0.30;;;;;;;-142.70;100.00;60390.16;4943886;29;20027;-82
2023/03/01 11:15:22;;;;;;;0.35;0.35;;;;;;;-142.70;100.00;60390.16;4939760;29;20051;-82
2023/03/01 11:17:50;;;;;;;0.20;0.20;;;;;;;-142.70;100.00;60390.16;4947806;29;20043;-83
2023/03/01 11:20:25;;;;;;;0.35;0.30;;;;;;;-142.70;100.00;60390.16;4975633;29;20040;-81
2023/03/01 11:22:54;;;;;;;0.50;0.38;;;;;;;-142.70;100.00;60390.16;4956416;29;20023;-81
2023/03/01 11:25:24;;;;;;;0.25;0.20;;;;;;;-142.70;100.00;60390.16;4938544;29;20042;-82
2023/03/01 11:27:51;;;;;;;0.98;0.50;;;;;;;-142.70;100.00;60390.16;4940626;29;20055;-82
2023/03/01 11:30:41;;;;;;;0.60;0.38;;;;;;;-142.70;100.00;60390.16;4975400;28;20083;-81
2023/03/01 11:33:18;;;;;;;0.30;0.30;;;;;;;-142.70;100.00;60390.16;4929769;28;20031;-81
2023/03/01 11:35:49;;;;;;;1.55;0.70;;;;;;;-142.70;100.00;60390.16;4951908;29;20497;-80